sensor_id;sensor_type;location;lat;lon;timestamp;P1;durP1;ratioP1;P2;durP2;ratioP2
2039;SDS011;1025;42.686;23.350;2023-02-10T00:01:17;10.10;;;6.35;;
2039;SDS011;1025;42.686;23.350;2023-02-10T00:03:44;7.63;;;4.93;;
2039;SDS011;1025;42.686;23.350;2023-02-10T00:06:10;5.70;;;5.13;;
2039;SDS011;1025;42.686;23.350;2023-02-10T00:08:38;6.77;;;5.97;;
2039;SDS011;1025;42.686;23.350;2023-02-10T00:11:07;6.50;;;5.30;;
2039;SDS011;1025;42.686;23.350;2023-02-10T00:13:35;7.30;;;5.87;;
2039;SDS011;1025;42.686;23.350;2023-02-10T00:16:02;7.30;;;5.50;;
2039;SDS011;1025;42.686;23.350;2023-02-10T00:18:29;5.37;;;4.53;;
2039;SDS011;1025;42.686;23.350;2023-02-10T00:20:56;8.27;;;5.30;;
2039;SDS011;1025;42.686;23.350;2023-02-10T00:23:23;9.50;;;6.53;;
2039;SDS011;1025;42.686;23.350;2023-02-10T00:25:49;7.70;;;6.37;;
2039;SDS011;1025;42.686;23.350;2023-02-10T00:28:17;6.50;;;5.47;;
2039;SDS011;1025;42.686;23.350;2023-02-10T00:30:44;8.40;;;6.80;;
2039;SDS011;1025;42.686;23.350;2023-02-10T00:33:10;5.80;;;5.37;;
2039;SDS011;1025;42.686;23.350;2023-02-10T00:35:37;5.27;;;4.80;;
2039;SDS011;1025;42.686;23.350;2023-02-10T00:38:03;6.67;;;6.10;;
2039;SDS011;1025;42.686;23.350;2023-02-10T00:40:30;8.57;;;7.82;;
2039;SDS011;1025;42.686;23.350;2023-02-10T00:42:56;7.10;;;6.50;;
2039;SDS011;1025;42.686;23.350;2023-02-10T00:45:24;6.47;;;5.85;;
2039;SDS011;1025;42.686;23.350;2023-02-10T00:47:51;8.03;;;6.47;;
2039;SDS011;1025;42.686;23.350;2023-02-10T00:50:18;11.20;;;6.97;;
2039;SDS011;1025;42.686;23.350;2023-02-10T00:52:44;9.50;;;6.23;;
2039;SDS011;1025;42.686;23.350;2023-02-10T00:55:11;10.32;;;6.40;;
2039;SDS011;1025;42.686;23.350;2023-02-10T00:57:37;9.17;;;6.40;;
2039;SDS011;1025;42.686;23.350;2023-02-10T01:00:04;4.40;;;4.20;;
2039;SDS011;1025;42.686;23.350;2023-02-10T01:05:00;5.93;;;5.40;;
2039;SDS011;1025;42.686;23.350;2023-02-10T01:07:28;6.40;;;5.90;;
2039;SDS011;1025;42.686;23.350;2023-02-10T01:09:55;6.80;;;5.93;;
2039;SDS011;1025;42.686;23.350;2023-02-10T01:12:21;5.68;;;5.05;;
2039;SDS011;1025;42.686;23.350;2023-02-10T01:14:48;6.30;;;5.80;;
2039;SDS011;1025;42.686;23.350;2023-02-10T01:17:15;7.03;;;6.03;;
2039;SDS011;1025;42.686;23.350;2023-02-10T01:19:41;5.60;;;5.20;;
2039;SDS011;1025;42.686;23.350;2023-02-10T01:22:09;5.47;;;4.97;;
2039;SDS011;1025;42.686;23.350;2023-02-10T01:24:36;6.03;;;5.43;;
2039;SDS011;1025;42.686;23.350;2023-02-10T01:27:02;5.97;;;5.47;;
2039;SDS011;1025;42.686;23.350;2023-02-10T01:29:29;7.10;;;6.60;;
2039;SDS011;1025;42.686;23.350;2023-02-10T01:31:55;5.28;;;4.75;;
2039;SDS011;1025;42.686;23.350;2023-02-10T01:34:22;7.53;;;5.33;;
2039;SDS011;1025;42.686;23.350;2023-02-10T01:36:48;5.20;;;4.87;;
2039;SDS011;1025;42.686;23.350;2023-02-10T01:39:16;5.53;;;4.90;;
2039;SDS011;1025;42.686;23.350;2023-02-10T01:41:43;4.80;;;4.50;;
2039;SDS011;1025;42.686;23.350;2023-02-10T01:46:51;13.07;;;5.67;;
2039;SDS011;1025;42.686;23.350;2023-02-10T01:49:18;5.68;;;5.15;;
2039;SDS011;1025;42.686;23.350;2023-02-10T01:51:46;4.80;;;4.40;;
2039;SDS011;1025;42.686;23.350;2023-02-10T01:54:15;8.73;;;7.70;;
2039;SDS011;1025;42.686;23.350;2023-02-10T01:56:43;5.70;;;5.30;;
2039;SDS011;1025;42.686;23.350;2023-02-10T01:59:10;6.20;;;5.40;;
2039;SDS011;1025;42.686;23.350;2023-02-10T02:01:37;6.77;;;6.00;;
2039;SDS011;1025;42.686;23.350;2023-02-10T02:04:03;11.03;;;7.53;;
2039;SDS011;1025;42.686;23.350;2023-02-10T02:06:30;6.80;;;6.30;;
2039;SDS011;1025;42.686;23.350;2023-02-10T02:08:57;8.43;;;7.00;;
2039;SDS011;1025;42.686;23.350;2023-02-10T02:11:25;5.93;;;5.32;;
2039;SDS011;1025;42.686;23.350;2023-02-10T02:16:40;7.80;;;7.10;;
2039;SDS011;1025;42.686;23.350;2023-02-10T02:19:15;3.70;;;3.47;;
2039;SDS011;1025;42.686;23.350;2023-02-10T02:24:38;7.90;;;4.73;;
2039;SDS011;1025;42.686;23.350;2023-02-10T02:32:34;3.50;;;3.30;;
2039;SDS011;1025;42.686;23.350;2023-02-10T02:35:03;4.40;;;4.17;;
2039;SDS011;1025;42.686;23.350;2023-02-10T02:37:30;7.65;;;6.07;;
2039;SDS011;1025;42.686;23.350;2023-02-10T02:39:58;6.57;;;6.05;;
2039;SDS011;1025;42.686;23.350;2023-02-10T02:42:25;7.97;;;7.22;;
2039;SDS011;1025;42.686;23.350;2023-02-10T02:44:53;10.68;;;8.30;;
2039;SDS011;1025;42.686;23.350;2023-02-10T02:47:24;10.82;;;7.90;;
2039;SDS011;1025;42.686;23.350;2023-02-10T02:49:56;13.65;;;12.43;;
2039;SDS011;1025;42.686;23.350;2023-02-10T02:52:29;21.17;;;11.27;;
2039;SDS011;1025;42.686;23.350;2023-02-10T02:54:59;12.00;;;10.90;;
2039;SDS011;1025;42.686;23.350;2023-02-10T02:57:28;11.65;;;9.02;;
2039;SDS011;1025;42.686;23.350;2023-02-10T02:59:59;21.63;;;9.18;;
2039;SDS011;1025;42.686;23.350;2023-02-10T03:02:28;15.48;;;11.18;;
2039;SDS011;1025;42.686;23.350;2023-02-10T03:04:57;12.73;;;10.83;;
2039;SDS011;1025;42.686;23.350;2023-02-10T03:07:24;11.80;;;10.43;;
2039;SDS011;1025;42.686;23.350;2023-02-10T03:09:50;11.85;;;10.65;;
2039;SDS011;1025;42.686;23.350;2023-02-10T03:12:17;11.85;;;10.57;;
2039;SDS011;1025;42.686;23.350;2023-02-10T03:14:43;24.83;;;10.73;;
2039;SDS011;1025;42.686;23.350;2023-02-10T03:17:10;18.27;;;11.52;;
2039;SDS011;1025;42.686;23.350;2023-02-10T03:19:36;15.85;;;10.85;;
2039;SDS011;1025;42.686;23.350;2023-02-10T03:22:04;15.30;;;11.77;;
2039;SDS011;1025;42.686;23.350;2023-02-10T03:24:31;52.13;;;12.73;;
2039;SDS011;1025;42.686;23.350;2023-02-10T03:26:57;24.40;;;10.35;;
2039;SDS011;1025;42.686;23.350;2023-02-10T03:29:24;11.55;;;8.48;;
2039;SDS011;1025;42.686;23.350;2023-02-10T03:31:50;11.73;;;9.93;;
2039;SDS011;1025;42.686;23.350;2023-02-10T03:34:17;13.50;;;10.27;;
2039;SDS011;1025;42.686;23.350;2023-02-10T03:36:44;10.70;;;9.45;;
2039;SDS011;1025;42.686;23.350;2023-02-10T03:39:12;9.23;;;8.38;;
2039;SDS011;1025;42.686;23.350;2023-02-10T03:41:38;9.75;;;9.00;;
2039;SDS011;1025;42.686;23.350;2023-02-10T03:44:05;11.43;;;9.88;;
2039;SDS011;1025;42.686;23.350;2023-02-10T03:46:32;10.95;;;9.70;;
2039;SDS011;1025;42.686;23.350;2023-02-10T03:48:58;15.35;;;9.52;;
2039;SDS011;1025;42.686;23.350;2023-02-10T03:51:25;9.73;;;8.73;;
2039;SDS011;1025;42.686;23.350;2023-02-10T03:53:51;11.95;;;10.70;;
2039;SDS011;1025;42.686;23.350;2023-02-10T03:56:19;24.60;;;10.77;;
2039;SDS011;1025;42.686;23.350;2023-02-10T03:58:46;11.07;;;10.07;;
2039;SDS011;1025;42.686;23.350;2023-02-10T04:01:13;13.82;;;10.00;;
2039;SDS011;1025;42.686;23.350;2023-02-10T04:03:40;11.48;;;9.60;;
2039;SDS011;1025;42.686;23.350;2023-02-10T04:06:07;8.80;;;8.10;;
2039;SDS011;1025;42.686;23.350;2023-02-10T04:08:34;16.05;;;12.45;;
2039;SDS011;1025;42.686;23.350;2023-02-10T04:11:00;17.25;;;9.75;;
2039;SDS011;1025;42.686;23.350;2023-02-10T04:13:29;11.90;;;9.85;;
2039;SDS011;1025;42.686;23.350;2023-02-10T04:15:59;14.02;;;9.85;;
2039;SDS011;1025;42.686;23.350;2023-02-10T04:18:28;11.27;;;8.40;;
2039;SDS011;1025;42.686;23.350;2023-02-10T04:20:55;10.88;;;8.48;;
2039;SDS011;1025;42.686;23.350;2023-02-10T04:23:22;5.55;;;5.20;;
2039;SDS011;1025;42.686;23.350;2023-02-10T04:25:48;8.57;;;7.88;;
2039;SDS011;1025;42.686;23.350;2023-02-10T04:28:15;8.75;;;7.95;;
2039;SDS011;1025;42.686;23.350;2023-02-10T04:30:43;9.82;;;8.80;;
2039;SDS011;1025;42.686;23.350;2023-02-10T04:33:09;11.57;;;6.28;;
2039;SDS011;1025;42.686;23.350;2023-02-10T04:35:36;7.80;;;7.30;;
2039;SDS011;1025;42.686;23.350;2023-02-10T04:38:02;9.50;;;7.32;;
2039;SDS011;1025;42.686;23.350;2023-02-10T04:40:29;11.13;;;10.02;;
2039;SDS011;1025;42.686;23.350;2023-02-10T04:42:57;7.33;;;6.73;;
2039;SDS011;1025;42.686;23.350;2023-02-10T04:45:24;6.80;;;5.55;;
2039;SDS011;1025;42.686;23.350;2023-02-10T04:47:52;7.87;;;7.20;;
2039;SDS011;1025;42.686;23.350;2023-02-10T04:50:19;8.25;;;7.20;;
2039;SDS011;1025;42.686;23.350;2023-02-10T04:52:45;7.65;;;7.03;;
2039;SDS011;1025;42.686;23.350;2023-02-10T04:55:12;8.45;;;7.72;;
2039;SDS011;1025;42.686;23.350;2023-02-10T04:57:39;9.40;;;8.60;;
2039;SDS011;1025;42.686;23.350;2023-02-10T05:00:05;10.02;;;7.35;;
2039;SDS011;1025;42.686;23.350;2023-02-10T05:02:32;12.27;;;8.70;;
2039;SDS011;1025;42.686;23.350;2023-02-10T05:05:00;9.38;;;8.60;;
2039;SDS011;1025;42.686;23.350;2023-02-10T05:07:27;9.52;;;8.63;;
2039;SDS011;1025;42.686;23.350;2023-02-10T05:09:53;7.90;;;7.05;;
2039;SDS011;1025;42.686;23.350;2023-02-10T05:12:20;7.38;;;6.75;;
2039;SDS011;1025;42.686;23.350;2023-02-10T05:14:46;10.45;;;6.90;;
2039;SDS011;1025;42.686;23.350;2023-02-10T05:17:13;7.63;;;7.10;;
2039;SDS011;1025;42.686;23.350;2023-02-10T05:19:39;5.95;;;5.43;;
2039;SDS011;1025;42.686;23.350;2023-02-10T05:22:07;13.85;;;12.50;;
2039;SDS011;1025;42.686;23.350;2023-02-10T05:24:34;14.05;;;6.90;;
2039;SDS011;1025;42.686;23.350;2023-02-10T05:27:00;7.10;;;5.20;;
2039;SDS011;1025;42.686;23.350;2023-02-10T05:29:27;8.30;;;7.28;;
2039;SDS011;1025;42.686;23.350;2023-02-10T05:31:53;6.50;;;5.95;;
2039;SDS011;1025;42.686;23.350;2023-02-10T05:34:20;6.65;;;6.05;;
2039;SDS011;1025;42.686;23.350;2023-02-10T05:36:47;8.13;;;7.50;;
2039;SDS011;1025;42.686;23.350;2023-02-10T05:39:15;9.85;;;8.05;;
2039;SDS011;1025;42.686;23.350;2023-02-10T05:41:51;6.75;;;6.15;;
2039;SDS011;1025;42.686;23.350;2023-02-10T05:44:18;14.02;;;9.93;;
2039;SDS011;1025;42.686;23.350;2023-02-10T05:46:44;14.55;;;10.38;;
2039;SDS011;1025;42.686;23.350;2023-02-10T05:49:11;27.65;;;9.32;;
2039;SDS011;1025;42.686;23.350;2023-02-10T05:51:37;11.57;;;10.13;;
2039;SDS011;1025;42.686;23.350;2023-02-10T05:54:04;8.88;;;8.18;;
2039;SDS011;1025;42.686;23.350;2023-02-10T05:56:32;11.45;;;9.85;;
2039;SDS011;1025;42.686;23.350;2023-02-10T05:58:58;48.83;;;8.45;;
2039;SDS011;1025;42.686;23.350;2023-02-10T06:01:25;9.85;;;7.57;;
2039;SDS011;1025;42.686;23.350;2023-02-10T06:03:52;18.70;;;12.50;;
2039;SDS011;1025;42.686;23.350;2023-02-10T06:06:19;13.35;;;11.73;;
2039;SDS011;1025;42.686;23.350;2023-02-10T06:08:45;17.23;;;10.93;;
2039;SDS011;1025;42.686;23.350;2023-02-10T06:11:12;14.13;;;12.55;;
2039;SDS011;1025;42.686;23.350;2023-02-10T06:13:40;11.20;;;8.75;;
2039;SDS011;1025;42.686;23.350;2023-02-10T06:16:07;11.48;;;9.80;;
2039;SDS011;1025;42.686;23.350;2023-02-10T06:18:34;14.82;;;11.65;;
2039;SDS011;1025;42.686;23.350;2023-02-10T06:21:00;11.73;;;10.38;;
2039;SDS011;1025;42.686;23.350;2023-02-10T06:23:27;19.50;;;12.02;;
2039;SDS011;1025;42.686;23.350;2023-02-10T06:25:54;16.25;;;12.10;;
2039;SDS011;1025;42.686;23.350;2023-02-10T06:28:21;13.50;;;10.53;;
2039;SDS011;1025;42.686;23.350;2023-02-10T06:30:49;14.20;;;10.10;;
2039;SDS011;1025;42.686;23.350;2023-02-10T06:33:16;10.48;;;9.45;;
2039;SDS011;1025;42.686;23.350;2023-02-10T06:35:42;17.92;;;11.50;;
2039;SDS011;1025;42.686;23.350;2023-02-10T06:38:09;15.38;;;12.15;;
2039;SDS011;1025;42.686;23.350;2023-02-10T06:40:36;17.97;;;13.43;;
2039;SDS011;1025;42.686;23.350;2023-02-10T06:43:02;19.40;;;12.23;;
2039;SDS011;1025;42.686;23.350;2023-02-10T06:45:29;13.05;;;11.48;;
2039;SDS011;1025;42.686;23.350;2023-02-10T06:47:57;21.30;;;11.63;;
2039;SDS011;1025;42.686;23.350;2023-02-10T06:50:23;10.57;;;9.60;;
2039;SDS011;1025;42.686;23.350;2023-02-10T06:52:50;8.50;;;6.95;;
2039;SDS011;1025;42.686;23.350;2023-02-10T06:55:17;11.60;;;10.60;;
2039;SDS011;1025;42.686;23.350;2023-02-10T06:57:43;10.13;;;8.83;;
2039;SDS011;1025;42.686;23.350;2023-02-10T07:00:10;12.03;;;11.13;;
2039;SDS011;1025;42.686;23.350;2023-02-10T07:02:38;12.83;;;11.50;;
2039;SDS011;1025;42.686;23.350;2023-02-10T07:05:07;14.07;;;12.50;;
2039;SDS011;1025;42.686;23.350;2023-02-10T07:07:34;7.73;;;7.07;;
2039;SDS011;1025;42.686;23.350;2023-02-10T07:10:00;22.83;;;14.73;;
2039;SDS011;1025;42.686;23.350;2023-02-10T07:12:27;13.07;;;11.90;;
2039;SDS011;1025;42.686;23.350;2023-02-10T07:14:54;11.07;;;10.03;;
2039;SDS011;1025;42.686;23.350;2023-02-10T07:17:20;12.90;;;11.90;;
2039;SDS011;1025;42.686;23.350;2023-02-10T07:19:47;17.23;;;13.87;;
2039;SDS011;1025;42.686;23.350;2023-02-10T07:22:15;13.97;;;12.60;;
2039;SDS011;1025;42.686;23.350;2023-02-10T07:24:41;18.87;;;13.60;;
2039;SDS011;1025;42.686;23.350;2023-02-10T07:27:08;16.57;;;11.23;;
2039;SDS011;1025;42.686;23.350;2023-02-10T07:29:34;12.00;;;9.93;;
2039;SDS011;1025;42.686;23.350;2023-02-10T07:32:02;11.23;;;10.43;;
2039;SDS011;1025;42.686;23.350;2023-02-10T07:34:29;14.73;;;12.67;;
2039;SDS011;1025;42.686;23.350;2023-02-10T07:36:59;12.37;;;11.10;;
2039;SDS011;1025;42.686;23.350;2023-02-10T07:39:27;15.83;;;14.57;;
2039;SDS011;1025;42.686;23.350;2023-02-10T07:41:53;23.43;;;14.97;;
2039;SDS011;1025;42.686;23.350;2023-02-10T07:44:20;15.97;;;13.70;;
2039;SDS011;1025;42.686;23.350;2023-02-10T07:46:47;13.30;;;12.23;;
2039;SDS011;1025;42.686;23.350;2023-02-10T07:49:13;15.37;;;11.97;;
2039;SDS011;1025;42.686;23.350;2023-02-10T07:51:40;13.73;;;11.40;;
2039;SDS011;1025;42.686;23.350;2023-02-10T07:54:07;15.57;;;13.60;;
2039;SDS011;1025;42.686;23.350;2023-02-10T07:56:35;22.67;;;14.57;;
2039;SDS011;1025;42.686;23.350;2023-02-10T07:59:02;17.73;;;16.00;;
2039;SDS011;1025;42.686;23.350;2023-02-10T08:01:29;18.43;;;14.40;;
2039;SDS011;1025;42.686;23.350;2023-02-10T08:03:55;13.87;;;12.60;;
2039;SDS011;1025;42.686;23.350;2023-02-10T08:06:25;20.27;;;14.53;;
2039;SDS011;1025;42.686;23.350;2023-02-10T08:08:51;15.50;;;13.97;;
2039;SDS011;1025;42.686;23.350;2023-02-10T08:11:18;16.20;;;14.53;;
2039;SDS011;1025;42.686;23.350;2023-02-10T08:13:46;16.57;;;15.00;;
2039;SDS011;1025;42.686;23.350;2023-02-10T08:16:12;15.30;;;13.67;;
2039;SDS011;1025;42.686;23.350;2023-02-10T08:18:39;15.47;;;14.07;;
2039;SDS011;1025;42.686;23.350;2023-02-10T08:21:06;16.10;;;13.50;;
2039;SDS011;1025;42.686;23.350;2023-02-10T08:23:33;16.40;;;14.67;;
2039;SDS011;1025;42.686;23.350;2023-02-10T08:26:04;14.53;;;13.23;;
2039;SDS011;1025;42.686;23.350;2023-02-10T08:28:30;15.70;;;13.30;;
2039;SDS011;1025;42.686;23.350;2023-02-10T08:30:59;16.87;;;15.20;;
2039;SDS011;1025;42.686;23.350;2023-02-10T08:33:26;14.47;;;12.17;;
2039;SDS011;1025;42.686;23.350;2023-02-10T08:35:53;29.60;;;16.10;;
2039;SDS011;1025;42.686;23.350;2023-02-10T08:38:20;19.10;;;12.87;;
2039;SDS011;1025;42.686;23.350;2023-02-10T08:40:53;11.10;;;10.23;;
2039;SDS011;1025;42.686;23.350;2023-02-10T08:43:19;18.63;;;11.57;;
2039;SDS011;1025;42.686;23.350;2023-02-10T08:45:46;17.63;;;13.13;;
2039;SDS011;1025;42.686;23.350;2023-02-10T08:48:14;14.20;;;12.90;;
2039;SDS011;1025;42.686;23.350;2023-02-10T08:50:40;12.23;;;10.97;;
2039;SDS011;1025;42.686;23.350;2023-02-10T08:53:07;17.23;;;14.13;;
2039;SDS011;1025;42.686;23.350;2023-02-10T08:55:34;11.67;;;10.73;;
2039;SDS011;1025;42.686;23.350;2023-02-10T08:58:01;24.73;;;11.50;;
2039;SDS011;1025;42.686;23.350;2023-02-10T09:00:28;17.80;;;13.43;;
2039;SDS011;1025;42.686;23.350;2023-02-10T09:02:54;12.80;;;10.50;;
2039;SDS011;1025;42.686;23.350;2023-02-10T09:05:22;14.03;;;12.80;;
2039;SDS011;1025;42.686;23.350;2023-02-10T09:07:49;16.00;;;14.30;;
2039;SDS011;1025;42.686;23.350;2023-02-10T09:10:15;16.27;;;12.30;;
2039;SDS011;1025;42.686;23.350;2023-02-10T09:12:42;15.13;;;13.57;;
2039;SDS011;1025;42.686;23.350;2023-02-10T09:15:09;15.50;;;13.00;;
2039;SDS011;1025;42.686;23.350;2023-02-10T09:17:35;18.67;;;12.80;;
2039;SDS011;1025;42.686;23.350;2023-02-10T09:20:02;18.60;;;14.53;;
2039;SDS011;1025;42.686;23.350;2023-02-10T09:22:30;20.50;;;14.70;;
2039;SDS011;1025;42.686;23.350;2023-02-10T09:24:56;16.37;;;14.90;;
2039;SDS011;1025;42.686;23.350;2023-02-10T09:27:24;19.80;;;13.40;;
2039;SDS011;1025;42.686;23.350;2023-02-10T09:29:51;12.20;;;11.23;;
2039;SDS011;1025;42.686;23.350;2023-02-10T09:32:17;20.83;;;12.07;;
2039;SDS011;1025;42.686;23.350;2023-02-10T09:34:44;16.27;;;14.67;;
2039;SDS011;1025;42.686;23.350;2023-02-10T09:37:11;13.47;;;12.20;;
2039;SDS011;1025;42.686;23.350;2023-02-10T09:39:39;15.57;;;14.00;;
2039;SDS011;1025;42.686;23.350;2023-02-10T09:42:08;15.80;;;14.33;;
2039;SDS011;1025;42.686;23.350;2023-02-10T09:44:35;13.03;;;11.97;;
2039;SDS011;1025;42.686;23.350;2023-02-10T09:47:06;12.93;;;11.97;;
2039;SDS011;1025;42.686;23.350;2023-02-10T09:49:42;13.47;;;12.17;;
2039;SDS011;1025;42.686;23.350;2023-02-10T09:52:12;12.90;;;11.57;;
2039;SDS011;1025;42.686;23.350;2023-02-10T09:54:42;16.40;;;13.40;;
2039;SDS011;1025;42.686;23.350;2023-02-10T09:57:11;13.40;;;12.30;;
2039;SDS011;1025;42.686;23.350;2023-02-10T09:59:38;14.03;;;12.83;;
2039;SDS011;1025;42.686;23.350;2023-02-10T10:02:09;14.70;;;12.30;;
2039;SDS011;1025;42.686;23.350;2023-02-10T10:04:37;14.40;;;13.10;;
2039;SDS011;1025;42.686;23.350;2023-02-10T10:07:09;46.07;;;13.93;;
2039;SDS011;1025;42.686;23.350;2023-02-10T10:09:40;12.80;;;11.60;;
2039;SDS011;1025;42.686;23.350;2023-02-10T10:12:09;12.17;;;11.17;;
2039;SDS011;1025;42.686;23.350;2023-02-10T10:14:38;14.23;;;12.67;;
2039;SDS011;1025;42.686;23.350;2023-02-10T10:17:07;13.87;;;11.00;;
2039;SDS011;1025;42.686;23.350;2023-02-10T10:19:38;12.53;;;9.30;;
2039;SDS011;1025;42.686;23.350;2023-02-10T10:22:11;11.27;;;10.27;;
2039;SDS011;1025;42.686;23.350;2023-02-10T10:24:48;27.47;;;13.13;;
2039;SDS011;1025;42.686;23.350;2023-02-10T10:27:23;10.67;;;9.80;;
2039;SDS011;1025;42.686;23.350;2023-02-10T10:29:52;13.10;;;11.90;;
2039;SDS011;1025;42.686;23.350;2023-02-10T10:32:24;5.77;;;5.37;;
2039;SDS011;1025;42.686;23.350;2023-02-10T10:34:53;16.90;;;9.77;;
2039;SDS011;1025;42.686;23.350;2023-02-10T10:37:21;10.70;;;9.63;;
2039;SDS011;1025;42.686;23.350;2023-02-10T10:39:48;12.07;;;11.07;;
2039;SDS011;1025;42.686;23.350;2023-02-10T10:42:17;10.70;;;9.50;;
2039;SDS011;1025;42.686;23.350;2023-02-10T10:44:47;9.63;;;8.70;;
2039;SDS011;1025;42.686;23.350;2023-02-10T10:47:15;10.00;;;9.10;;
2039;SDS011;1025;42.686;23.350;2023-02-10T10:49:43;11.57;;;10.13;;
2039;SDS011;1025;42.686;23.350;2023-02-10T10:52:17;10.83;;;9.73;;
2039;SDS011;1025;42.686;23.350;2023-02-10T10:54:45;8.27;;;7.53;;
2039;SDS011;1025;42.686;23.350;2023-02-10T10:57:12;11.43;;;9.20;;
2039;SDS011;1025;42.686;23.350;2023-02-10T10:59:40;11.87;;;10.50;;
2039;SDS011;1025;42.686;23.350;2023-02-10T11:02:12;11.87;;;8.40;;
2039;SDS011;1025;42.686;23.350;2023-02-10T11:04:39;10.03;;;8.53;;
2039;SDS011;1025;42.686;23.350;2023-02-10T11:07:08;11.23;;;9.13;;
2039;SDS011;1025;42.686;23.350;2023-02-10T11:09:36;9.23;;;8.40;;
2039;SDS011;1025;42.686;23.350;2023-02-10T11:12:06;23.07;;;15.53;;
2039;SDS011;1025;42.686;23.350;2023-02-10T11:14:36;9.20;;;8.40;;
2039;SDS011;1025;42.686;23.350;2023-02-10T11:17:24;9.62;;;9.00;;
2039;SDS011;1025;42.686;23.350;2023-02-10T11:19:53;12.40;;;11.37;;
2039;SDS011;1025;42.686;23.350;2023-02-10T11:22:20;12.03;;;10.97;;
2039;SDS011;1025;42.686;23.350;2023-02-10T11:24:49;10.13;;;9.13;;
2039;SDS011;1025;42.686;23.350;2023-02-10T11:27:16;13.80;;;10.13;;
2039;SDS011;1025;42.686;23.350;2023-02-10T11:29:45;8.40;;;7.77;;
2039;SDS011;1025;42.686;23.350;2023-02-10T11:32:15;9.27;;;8.67;;
2039;SDS011;1025;42.686;23.350;2023-02-10T11:34:45;9.17;;;8.27;;
2039;SDS011;1025;42.686;23.350;2023-02-10T11:37:18;12.33;;;8.73;;
2039;SDS011;1025;42.686;23.350;2023-02-10T11:39:45;22.33;;;12.10;;
2039;SDS011;1025;42.686;23.350;2023-02-10T11:42:16;9.80;;;9.03;;
2039;SDS011;1025;42.686;23.350;2023-02-10T11:44:51;10.40;;;9.50;;
2039;SDS011;1025;42.686;23.350;2023-02-10T11:47:18;10.10;;;9.30;;
2039;SDS011;1025;42.686;23.350;2023-02-10T11:49:46;11.03;;;8.40;;
2039;SDS011;1025;42.686;23.350;2023-02-10T11:52:14;13.30;;;9.53;;
2039;SDS011;1025;42.686;23.350;2023-02-10T11:54:41;10.13;;;9.23;;
2039;SDS011;1025;42.686;23.350;2023-02-10T11:57:12;9.57;;;8.87;;
2039;SDS011;1025;42.686;23.350;2023-02-10T12:00:02;9.10;;;8.30;;
2039;SDS011;1025;42.686;23.350;2023-02-10T12:02:34;10.47;;;9.63;;
2039;SDS011;1025;42.686;23.350;2023-02-10T12:05:18;10.10;;;9.20;;
2039;SDS011;1025;42.686;23.350;2023-02-10T12:07:55;11.93;;;10.40;;
2039;SDS011;1025;42.686;23.350;2023-02-10T12:10:25;11.27;;;10.10;;
2039;SDS011;1025;42.686;23.350;2023-02-10T12:12:55;9.83;;;8.93;;
2039;SDS011;1025;42.686;23.350;2023-02-10T12:15:25;50.03;;;13.53;;
2039;SDS011;1025;42.686;23.350;2023-02-10T12:17:58;8.43;;;7.73;;
2039;SDS011;1025;42.686;23.350;2023-02-10T12:20:36;16.93;;;10.20;;
2039;SDS011;1025;42.686;23.350;2023-02-10T12:25:52;11.83;;;9.90;;
2039;SDS011;1025;42.686;23.350;2023-02-10T12:28:23;9.37;;;8.60;;
2039;SDS011;1025;42.686;23.350;2023-02-10T12:30:53;8.33;;;7.53;;
2039;SDS011;1025;42.686;23.350;2023-02-10T12:33:29;9.97;;;9.03;;
2039;SDS011;1025;42.686;23.350;2023-02-10T12:36:02;13.70;;;12.33;;
2039;SDS011;1025;42.686;23.350;2023-02-10T12:38:36;9.83;;;8.93;;
2039;SDS011;1025;42.686;23.350;2023-02-10T12:41:07;10.03;;;9.03;;
2039;SDS011;1025;42.686;23.350;2023-02-10T12:43:41;10.80;;;9.90;;
2039;SDS011;1025;42.686;23.350;2023-02-10T12:46:13;15.77;;;14.23;;
2039;SDS011;1025;42.686;23.350;2023-02-10T12:48:44;20.33;;;11.90;;
2039;SDS011;1025;42.686;23.350;2023-02-10T12:51:17;11.47;;;10.33;;
2039;SDS011;1025;42.686;23.350;2023-02-10T12:53:47;12.00;;;11.10;;
2039;SDS011;1025;42.686;23.350;2023-02-10T12:56:15;17.63;;;12.50;;
2039;SDS011;1025;42.686;23.350;2023-02-10T12:58:45;9.87;;;9.17;;
2039;SDS011;1025;42.686;23.350;2023-02-10T13:01:13;8.47;;;7.90;;
2039;SDS011;1025;42.686;23.350;2023-02-10T13:03:42;11.13;;;9.60;;
2039;SDS011;1025;42.686;23.350;2023-02-10T13:06:30;8.47;;;7.60;;
2039;SDS011;1025;42.686;23.350;2023-02-10T13:09:00;12.40;;;11.10;;
2039;SDS011;1025;42.686;23.350;2023-02-10T13:11:31;13.00;;;9.13;;
2039;SDS011;1025;42.686;23.350;2023-02-10T13:13:59;9.60;;;8.10;;
2039;SDS011;1025;42.686;23.350;2023-02-10T13:16:28;9.80;;;8.70;;
2039;SDS011;1025;42.686;23.350;2023-02-10T13:18:57;11.27;;;10.27;;
2039;SDS011;1025;42.686;23.350;2023-02-10T13:21:29;11.20;;;10.17;;
2039;SDS011;1025;42.686;23.350;2023-02-10T13:23:59;8.70;;;8.00;;
2039;SDS011;1025;42.686;23.350;2023-02-10T13:26:35;9.90;;;9.00;;
2039;SDS011;1025;42.686;23.350;2023-02-10T13:29:07;13.70;;;12.10;;
2039;SDS011;1025;42.686;23.350;2023-02-10T13:31:40;14.03;;;11.10;;
2039;SDS011;1025;42.686;23.350;2023-02-10T13:34:13;11.10;;;10.30;;
2039;SDS011;1025;42.686;23.350;2023-02-10T13:36:42;11.10;;;10.23;;
2039;SDS011;1025;42.686;23.350;2023-02-10T13:39:15;15.23;;;9.50;;
2039;SDS011;1025;42.686;23.350;2023-02-10T13:41:43;19.53;;;11.17;;
2039;SDS011;1025;42.686;23.350;2023-02-10T13:44:18;11.40;;;10.30;;
2039;SDS011;1025;42.686;23.350;2023-02-10T13:46:48;9.03;;;8.43;;
2039;SDS011;1025;42.686;23.350;2023-02-10T13:49:16;21.40;;;11.10;;
2039;SDS011;1025;42.686;23.350;2023-02-10T13:51:45;9.03;;;8.33;;
2039;SDS011;1025;42.686;23.350;2023-02-10T13:54:23;9.83;;;8.93;;
2039;SDS011;1025;42.686;23.350;2023-02-10T13:56:52;9.80;;;9.00;;
2039;SDS011;1025;42.686;23.350;2023-02-10T13:59:26;9.60;;;8.80;;
2039;SDS011;1025;42.686;23.350;2023-02-10T14:02:01;11.33;;;8.30;;
2039;SDS011;1025;42.686;23.350;2023-02-10T14:04:29;10.13;;;8.43;;
2039;SDS011;1025;42.686;23.350;2023-02-10T14:06:57;9.53;;;8.53;;
2039;SDS011;1025;42.686;23.350;2023-02-10T14:09:31;9.97;;;8.90;;
2039;SDS011;1025;42.686;23.350;2023-02-10T14:11:59;8.83;;;8.13;;
2039;SDS011;1025;42.686;23.350;2023-02-10T14:14:27;10.10;;;9.20;;
2039;SDS011;1025;42.686;23.350;2023-02-10T14:17:01;13.30;;;8.27;;
2039;SDS011;1025;42.686;23.350;2023-02-10T14:19:29;11.37;;;10.50;;
2039;SDS011;1025;42.686;23.350;2023-02-10T14:21:58;8.23;;;7.67;;
2039;SDS011;1025;42.686;23.350;2023-02-10T14:24:26;10.00;;;8.97;;
2039;SDS011;1025;42.686;23.350;2023-02-10T14:26:54;10.77;;;9.73;;
2039;SDS011;1025;42.686;23.350;2023-02-10T14:29:21;9.20;;;8.40;;
2039;SDS011;1025;42.686;23.350;2023-02-10T14:31:49;11.63;;;10.47;;
2039;SDS011;1025;42.686;23.350;2023-02-10T14:34:17;11.87;;;11.00;;
2039;SDS011;1025;42.686;23.350;2023-02-10T14:36:49;11.67;;;10.50;;
2039;SDS011;1025;42.686;23.350;2023-02-10T14:39:20;16.17;;;12.60;;
2039;SDS011;1025;42.686;23.350;2023-02-10T14:41:48;13.80;;;11.60;;
2039;SDS011;1025;42.686;23.350;2023-02-10T14:44:18;11.20;;;10.43;;
2039;SDS011;1025;42.686;23.350;2023-02-10T14:46:47;14.60;;;13.23;;
2039;SDS011;1025;42.686;23.350;2023-02-10T14:49:15;16.73;;;14.20;;
2039;SDS011;1025;42.686;23.350;2023-02-10T14:51:44;16.47;;;12.20;;
2039;SDS011;1025;42.686;23.350;2023-02-10T14:54:13;15.50;;;13.03;;
2039;SDS011;1025;42.686;23.350;2023-02-10T14:56:49;12.03;;;11.03;;
2039;SDS011;1025;42.686;23.350;2023-02-10T14:59:20;15.17;;;13.67;;
2039;SDS011;1025;42.686;23.350;2023-02-10T15:01:47;23.17;;;12.73;;
2039;SDS011;1025;42.686;23.350;2023-02-10T15:04:15;13.80;;;12.50;;
2039;SDS011;1025;42.686;23.350;2023-02-10T15:06:43;15.93;;;14.13;;
2039;SDS011;1025;42.686;23.350;2023-02-10T15:09:11;13.87;;;11.87;;
2039;SDS011;1025;42.686;23.350;2023-02-10T15:11:41;28.97;;;14.43;;